createdAt,value
2022-08-16T00:03:06.852Z,2.75
2022-08-16T00:08:12.361Z,2.31
2022-08-16T00:13:20.805Z,6.11
2022-08-16T00:18:29.515Z,4.83
2022-08-16T00:23:34.553Z,3.58
2022-08-16T00:28:41.075Z,3.75
2022-08-16T00:33:50.219Z,1.12
2022-08-16T00:38:56.298Z,2.95
2022-08-16T00:44:02.464Z,1.07
2022-08-16T00:49:18.871Z,1.77
2022-08-16T00:54:16.335Z,2.30
2022-08-16T00:59:23.761Z,1.85
2022-08-16T01:04:30.946Z,2.23
2022-08-16T01:09:37.854Z,1.66
2022-08-16T01:14:44.674Z,1.65
2022-08-16T01:19:51.548Z,0.68
2022-08-16T01:24:58.894Z,0.89
2022-08-16T01:30:05.762Z,0.39
2022-08-16T01:35:17.071Z,0.03
2022-08-16T01:40:20.070Z,0.97
2022-08-16T01:45:40.382Z,0.05
2022-08-16T01:50:42.001Z,0.01
2022-08-16T01:55:41.559Z,0.00
2022-08-16T02:00:48.419Z,0.00
2022-08-16T02:05:55.854Z,0.04
2022-08-16T02:11:02.658Z,0.04
2022-08-16T02:16:18.266Z,0.00
2022-08-16T02:21:16.896Z,0.08
2022-08-16T02:26:23.689Z,0.15
2022-08-16T02:32:03.157Z,0.01
2022-08-16T02:36:42.500Z,0.25
2022-08-16T02:41:45.177Z,0.18
2022-08-16T02:46:53.928Z,0.04
2022-08-16T02:51:59.275Z,0.00
2022-08-16T02:57:06.746Z,0.00
2022-08-16T03:07:27.731Z,0.01
2022-08-16T03:12:30.406Z,0.01
2022-08-16T03:17:35.113Z,0.01
2022-08-16T03:22:45.368Z,0.00
2022-08-16T03:27:49.354Z,0.00
2022-08-16T03:32:56.124Z,0.00
2022-08-16T03:38:04.238Z,0.00
2022-08-16T03:43:19.978Z,0.00
2022-08-16T03:48:18.285Z,0.00
2022-08-16T03:53:24.200Z,0.00
2022-08-16T03:58:31.639Z,0.22
2022-08-16T04:03:39.543Z,0.00
2022-08-16T04:08:46.031Z,0.02
2022-08-16T04:14:01.129Z,0.00
2022-08-16T04:19:02.273Z,0.01
2022-08-16T04:24:07.980Z,0.00
2022-08-16T04:29:16.876Z,0.01
2022-08-16T04:34:21.303Z,0.00
2022-08-16T04:39:46.118Z,0.00
2022-08-16T04:44:53.571Z,0.00
2022-08-16T04:49:46.008Z,0.00
2022-08-16T04:54:49.351Z,0.01
2022-08-16T04:59:56.785Z,0.01
2022-08-16T05:05:03.698Z,0.04
2022-08-16T05:05:03.703Z,0.04
2022-08-16T05:10:19.509Z,0.10
2022-08-16T05:15:17.896Z,3.96
2022-08-16T05:20:39.349Z,3.67
2022-08-16T05:25:41.299Z,3.33
2022-08-16T05:30:39.321Z,4.87
2022-08-16T05:35:55.069Z,5.76
2022-08-16T05:40:59.690Z,5.13
2022-08-16T05:46:00.969Z,4.36
2022-08-16T05:51:07.792Z,6.07
2022-08-16T05:56:19.293Z,2.62
2022-08-16T06:01:22.069Z,4.53
2022-08-16T06:06:29.385Z,6.07
2022-08-16T06:11:36.184Z,3.02
2022-08-16T06:16:43.649Z,2.90
2022-08-16T06:21:55.214Z,3.76
2022-08-16T06:26:58.385Z,4.68
2022-08-16T06:32:04.761Z,5.11
2022-08-16T06:37:12.068Z,5.59
2022-08-16T06:42:19.244Z,3.53
2022-08-16T06:47:53.039Z,2.64
2022-08-16T06:52:58.181Z,4.24
2022-08-16T06:57:40.497Z,3.77
2022-08-16T07:02:51.825Z,2.70
2022-08-16T07:07:55.087Z,2.01
2022-08-16T07:13:04.162Z,3.02
2022-08-16T07:18:08.978Z,2.55
2022-08-16T07:23:16.278Z,2.04
2022-08-16T07:28:24.549Z,2.72
2022-08-16T07:33:30.565Z,2.92
2022-08-16T07:38:37.422Z,4.45
2022-08-16T07:43:44.958Z,6.29
2022-08-16T07:48:51.778Z,7.24
2022-08-16T07:54:02.495Z,6.89
2022-08-16T07:59:06.162Z,5.92
2022-08-16T08:04:13.630Z,4.57
2022-08-16T08:09:20.560Z,3.77
2022-08-16T08:14:30.167Z,2.29
2022-08-16T08:19:35.116Z,2.89
2022-08-16T08:24:43.936Z,4.81
2022-08-16T08:30:48.883Z,2.88
2022-08-16T08:34:56.445Z,2.30
2022-08-16T08:40:03.323Z,7.12
2022-08-16T08:45:20.262Z,5.92
2022-08-16T08:50:31.805Z,4.16
2022-08-16T08:55:24.624Z,4.36
2022-08-16T09:00:32.091Z,3.52
2022-08-16T09:05:38.955Z,4.21
2022-08-16T09:10:46.278Z,6.77
2022-08-16T09:15:53.925Z,5.50
2022-08-16T09:21:02.069Z,4.32
2022-08-16T09:26:44.707Z,4.70
2022-08-16T09:31:14.842Z,3.98
2022-08-16T09:36:31.821Z,5.84
2022-08-16T09:41:29.175Z,3.97
2022-08-16T09:46:48.513Z,6.92
2022-08-16T09:51:43.584Z,10.98
2022-08-16T09:56:53.079Z,10.10
2022-08-16T10:01:58.165Z,7.03
2022-08-16T10:07:15.114Z,4.09
2022-08-16T10:12:17.891Z,2.44
2022-08-16T10:22:26.857Z,2.05
2022-08-16T10:27:57.021Z,3.34
2022-08-16T10:32:40.983Z,2.95
2022-08-16T10:37:48.562Z,4.87
2022-08-16T10:42:57.139Z,4.52
2022-08-16T10:48:03.520Z,4.60
2022-08-16T10:53:09.435Z,4.41
2022-08-16T10:58:37.309Z,4.55
2022-08-16T11:49:34.248Z,3.45
2022-08-16T11:54:36.743Z,2.38
2022-08-16T11:59:42.662Z,4.57
2022-08-16T12:04:52.082Z,7.12
2022-08-16T12:09:57.510Z,4.53
2022-08-16T12:15:13.491Z,3.21
2022-08-16T12:20:18.617Z,3.55
2022-08-16T12:25:19.036Z,4.14
2022-08-16T12:30:31.109Z,11.10
2022-08-16T12:35:33.066Z,8.03
2022-08-16T12:40:41.507Z,1.60
2022-08-16T12:45:48.620Z,5.96
2022-08-16T12:50:56.917Z,8.29
2022-08-16T12:56:01.700Z,4.24
2022-08-16T13:01:09.470Z,6.76
2022-08-16T13:06:19.917Z,6.32
2022-08-16T13:11:23.923Z,3.94
2022-08-16T13:16:31.491Z,6.33
2022-08-16T13:21:37.128Z,3.85
2022-08-16T13:26:44.389Z,4.66
2022-08-16T13:31:51.603Z,1.67
2022-08-16T13:36:58.746Z,4.95
2022-08-16T13:42:06.035Z,4.42
2022-08-16T13:47:13.072Z,4.96
2022-08-16T13:52:20.690Z,3.55
2022-08-16T13:57:53.341Z,2.18
2022-08-16T14:02:34.365Z,3.18
2022-08-16T14:07:41.533Z,5.41
2022-08-16T14:12:49.795Z,3.45
2022-08-16T14:18:16.100Z,3.48
2022-08-16T14:23:03.407Z,3.59
2022-08-16T14:28:10.081Z,1.38
2022-08-16T14:33:17.357Z,2.87
2022-08-16T14:38:24.717Z,2.79
2022-08-16T14:43:32.479Z,3.13
2022-08-16T14:48:38.717Z,3.16
2022-08-16T14:53:46.036Z,2.53
2022-08-16T14:58:53.271Z,4.60
2022-08-16T15:04:00.435Z,5.09
2022-08-16T15:09:07.518Z,2.86
2022-08-16T15:14:15.175Z,4.11
2022-08-16T15:19:21.834Z,1.92
2022-08-16T15:24:29.910Z,3.60
2022-08-16T15:29:36.571Z,3.65
2022-08-16T15:34:44.403Z,2.10
2022-08-16T15:39:53.872Z,3.85
2022-08-16T15:44:58.697Z,2.82
2022-08-16T15:50:04.756Z,2.23
2022-08-16T15:55:13.240Z,3.52
2022-08-16T16:00:18.681Z,2.20
2022-08-16T16:05:25.737Z,2.37
2022-08-16T16:10:33.274Z,2.74
2022-08-16T16:15:41.205Z,1.62
2022-08-16T16:20:48.787Z,4.66
2022-08-16T16:25:54.227Z,3.12
2022-08-16T16:31:02.890Z,2.90
2022-08-16T16:36:10.431Z,1.27
2022-08-16T16:41:15.987Z,2.39
2022-08-16T16:46:42.036Z,0.90
2022-08-16T16:51:30.166Z,1.66
2022-08-16T16:56:37.831Z,1.88
2022-08-16T17:01:59.831Z,3.38
2022-08-16T17:06:53.413Z,2.44
2022-08-16T17:11:58.758Z,1.79
2022-08-16T17:17:05.729Z,1.45
2022-08-16T17:22:14.580Z,1.26
2022-08-16T17:27:50.679Z,0.36
2022-08-16T17:32:34.180Z,0.20
2022-08-16T17:37:48.662Z,0.76
2022-08-16T17:42:44.817Z,1.05
2022-08-16T17:47:49.353Z,0.61
2022-08-16T17:52:55.623Z,0.61
2022-08-16T17:58:09.887Z,0.33
2022-08-16T18:08:17.172Z,0.07
2022-08-16T18:13:24.164Z,0.12
2022-08-16T18:18:31.923Z,0.05
2022-08-16T18:23:39.465Z,0.01
2022-08-16T18:28:45.835Z,0.02
2022-08-16T18:33:55.504Z,0.00
2022-08-16T18:38:59.827Z,0.00
2022-08-16T18:44:25.024Z,0.00
2022-08-16T18:49:17.873Z,0.00
2022-08-16T18:54:21.550Z,0.00
2022-08-16T18:59:29.552Z,0.14
2022-08-16T19:04:49.014Z,0.04
2022-08-16T19:09:42.473Z,0.01
2022-08-16T19:14:49.432Z,0.02
2022-08-16T19:19:58.005Z,0.05
2022-08-16T19:25:03.574Z,0.02
2022-08-16T19:30:11.067Z,0.00
2022-08-16T19:35:18.131Z,0.00
2022-08-16T19:40:38.163Z,0.00
2022-08-16T19:45:32.146Z,0.00
2022-08-16T19:50:39.129Z,0.01
2022-08-16T19:55:47.270Z,0.00
2022-08-16T20:00:56.302Z,0.02
2022-08-16T20:06:00.699Z,0.00
2022-08-16T20:11:07.731Z,0.00
2022-08-16T20:16:16.196Z,0.00
2022-08-16T20:21:22.202Z,0.00
2022-08-16T20:26:29.222Z,0.00
2022-08-16T20:31:37.094Z,0.00
2022-08-16T20:36:45.633Z,0.01
2022-08-16T20:41:50.648Z,0.00
2022-08-16T20:46:57.623Z,0.00
2022-08-16T20:52:05.120Z,0.00
2022-08-16T20:57:13.075Z,0.01
2022-08-16T21:02:19.043Z,0.00
2022-08-16T21:07:27.046Z,0.01
2022-08-16T21:12:34.750Z,0.31
2022-08-16T21:17:42.339Z,1.78
2022-08-16T21:22:50.045Z,0.42
2022-08-16T21:28:36.883Z,0.77
2022-08-16T21:33:01.390Z,0.01
2022-08-16T21:38:29.341Z,0.04
2022-08-16T21:43:15.881Z,0.08
2022-08-16T21:48:34.943Z,0.03
2022-08-16T21:53:30.757Z,0.01
2022-08-16T21:58:39.140Z,0.02
2022-08-16T22:03:44.098Z,0.01
2022-08-16T22:08:51.296Z,0.00
2022-08-16T22:13:59.325Z,0.00
2022-08-16T22:19:05.267Z,0.00
2022-08-16T22:24:12.346Z,0.00
2022-08-16T22:29:20.304Z,0.00
2022-08-16T22:34:26.800Z,0.02
2022-08-16T22:39:33.930Z,0.00
2022-08-16T22:44:45.661Z,0.00
2022-08-16T22:49:47.863Z,0.03
2022-08-16T22:54:56.837Z,0.01
2022-08-16T23:00:02.465Z,0.58
2022-08-16T23:05:10.703Z,0.02
2022-08-16T23:10:16.247Z,0.01
2022-08-16T23:20:30.845Z,0.00
2022-08-16T23:25:38.021Z,0.01
2022-08-16T23:30:44.664Z,0.00
2022-08-16T23:35:53.254Z,0.00
2022-08-16T23:40:58.832Z,0.00
2022-08-16T23:46:05.982Z,0.00
2022-08-16T23:51:13.053Z,0.16
2022-08-16T23:56:20.208Z,0.02
